Kennetcook, Canada
Current Conditions -  °F | °C
As of 12:00 AM on Sunday 26 Oct 2014 (Local Time) from CYHZ Reporting Station
Broken Clouds Broken Clouds  
Wind Chill: 43°   Ceiling: 400
Heat Index: 46°   Visibility: 15mi
Dew Point: 45°   Wind: 7mph
Humidity: 93%   Direction: 310°NW
Pressure: 29.5"   Gusts: NA
Location:  45.18°N, 63.72°W
Report Text: CYHZ 260300Z 31006KT 15SM BKN004 08/07 A2950 RMK SF5 SLP992
Loading
Personal Weather Stations






























Interactive Weather Map New forecast layout! Learn more

10-Day Weather Forecast

Advertisements
Track Severe Weather on mobile